Boynton Beach, Florida
Current Conditions -  °F | °C
As of 7:50 PM on Monday 24 Nov 2014 (Local Time) from KBCT Reporting Station
Scattered Clouds Scattered Clouds  
Wind Chill: 79°   Ceiling: Unl
Heat Index: 82°   Visibility: 7mi
Dew Point: 75°   Wind: 12mph
Humidity: 89%   Direction: 180°S
Pressure: 30.02"   Gusts: NA
Location:  26.53°N, 80.06°W
Report Text: KBCT 250050Z 18010KT 7SM SCT007 26/24 A3002
Loading
Personal Weather Stations






























Interactive Weather Map New forecast layout! Learn more

10-Day Weather Forecast

Advertisements
Track Severe Weather on mobile